aviador You're here:

WMKL Decoded Metar

PULAU in MALAYSIA
Report Time2017-06-24 17:00:00
UTC Time2017-06-24 17:19:49
Flight Rules mvfr MVFR
WindVRB at 02 kt
Visibility7000 m
Phenomena:Light Rain
Clouds:Few 010 Hf
Scattered 025 Hf
Overcast 260 Hf
Expected CloudBase > 400 ft AGL from Temp-Dew spread
Ceiling26,000 ft
Temp24°C (ISA +9)
Dew Point23°C (94% RH)
QNH1009 hPa
Density Alt1,578 ft
Elevation23 ft
Report Wrong Elevation
Raw Report
WMKL 241700Z VRB02KT 7000 -RA FEW010 SCT025 OVC260 24/23 Q1009=

Extra information for WMKL:More info

Metar Taf Metar & Taf Last 4 Metars F.Rules Stats Wind Profile Meteogram Temp Stats Airport Information Weather charts Add Link Nearby VenuesMetar ALERT Operation Metar Decoded Social comments